createdAt,value
2023-02-28T00:00:33.897Z,4.20
2023-02-28T00:03:01.111Z,4.20
2023-02-28T00:05:29.208Z,4.20
2023-02-28T00:07:56.418Z,4.20
2023-02-28T00:10:26.312Z,4.20
2023-02-28T00:12:54.758Z,4.20
2023-02-28T00:15:22.355Z,4.20
2023-02-28T00:17:48.910Z,4.10
2023-02-28T00:20:16.544Z,4.20
2023-02-28T00:22:48.841Z,4.20
2023-02-28T00:25:18.125Z,4.10
2023-02-28T00:27:45.246Z,4.10
2023-02-28T00:30:20.116Z,4.10
2023-02-28T00:32:46.737Z,4.10
2023-02-28T00:35:13.540Z,4.10
2023-02-28T00:37:40.489Z,4.10
2023-02-28T00:40:08.248Z,4.10
2023-02-28T00:42:36.012Z,4.10
2023-02-28T00:45:04.671Z,4.10
2023-02-28T00:47:31.886Z,4.10
2023-02-28T00:49:58.663Z,4.10
2023-02-28T00:52:25.497Z,4.10
2023-02-28T00:54:52.177Z,4.10
2023-02-28T00:57:18.912Z,4.10
2023-02-28T00:59:45.659Z,4.00
2023-02-28T01:02:12.453Z,4.10
2023-02-28T01:04:39.174Z,4.10
2023-02-28T01:07:05.957Z,4.10
2023-02-28T01:09:32.513Z,4.00
2023-02-28T01:11:59.233Z,4.00
2023-02-28T01:14:26.017Z,4.00
2023-02-28T01:16:52.690Z,4.00
2023-02-28T01:19:19.281Z,4.00
2023-02-28T01:21:46.062Z,4.00
2023-02-28T01:24:12.679Z,4.00
2023-02-28T01:26:39.364Z,4.00
2023-02-28T01:29:05.944Z,4.00
2023-02-28T01:31:33.040Z,4.00
2023-02-28T01:34:00.110Z,4.00
2023-02-28T01:36:26.769Z,4.00
2023-02-28T01:38:54.933Z,4.00
2023-02-28T01:41:28.485Z,4.00
2023-02-28T01:44:04.097Z,4.00
2023-02-28T01:46:32.669Z,4.00
2023-02-28T01:49:12.079Z,4.00
2023-02-28T01:51:47.292Z,4.00
2023-02-28T01:54:19.079Z,4.00
2023-02-28T01:56:53.066Z,4.00
2023-02-28T01:59:35.754Z,4.00
2023-02-28T02:02:03.458Z,4.00
2023-02-28T02:04:39.571Z,4.00
2023-02-28T02:07:06.439Z,4.00
2023-02-28T02:09:33.108Z,4.00
2023-02-28T02:12:08.510Z,4.00
2023-02-28T02:15:10.307Z,4.00
2023-02-28T02:17:51.907Z,4.00
2023-02-28T02:20:46.260Z,3.90
2023-02-28T02:23:40.648Z,3.90
2023-02-28T02:26:44.720Z,3.90
2023-02-28T02:29:33.549Z,3.90
2023-02-28T02:32:29.395Z,3.90
2023-02-28T02:35:19.291Z,3.90
2023-02-28T02:37:58.128Z,3.90
2023-02-28T02:40:31.095Z,3.80
2023-02-28T02:43:08.974Z,3.80
2023-02-28T02:45:40.965Z,3.80
2023-02-28T02:48:13.946Z,3.80
2023-02-28T02:50:47.671Z,3.80
2023-02-28T02:53:18.272Z,3.70
2023-02-28T02:55:48.234Z,3.70
2023-02-28T02:58:19.671Z,3.70
2023-02-28T03:00:54.408Z,3.70
2023-02-28T03:03:29.557Z,3.70
2023-02-28T03:05:58.312Z,3.70
2023-02-28T03:08:24.891Z,3.70
2023-02-28T03:10:56.615Z,3.70
2023-02-28T03:13:45.593Z,3.70
2023-02-28T03:16:18.358Z,3.70
2023-02-28T03:19:03.707Z,3.70
2023-02-28T03:21:41.779Z,3.70
2023-02-28T03:24:14.385Z,3.70
2023-02-28T03:26:45.968Z,3.70
2023-02-28T03:29:38.741Z,3.70
2023-02-28T03:32:22.700Z,3.70
2023-02-28T03:34:56.953Z,3.70
2023-02-28T03:37:26.601Z,3.70
2023-02-28T03:40:07.348Z,3.70
2023-02-28T03:42:37.728Z,3.70
2023-02-28T03:45:14.801Z,3.70
2023-02-28T03:47:50.344Z,3.70
2023-02-28T03:50:25.351Z,3.70
2023-02-28T03:53:02.016Z,3.70
2023-02-28T03:55:43.802Z,3.70
2023-02-28T03:58:53.103Z,3.70
2023-02-28T04:01:39.751Z,3.70
2023-02-28T04:04:06.379Z,3.60
2023-02-28T04:06:35.046Z,3.60
2023-02-28T04:09:02.379Z,3.60
2023-02-28T04:11:36.417Z,3.60
2023-02-28T04:14:04.281Z,3.50
2023-02-28T04:16:35.676Z,3.50
2023-02-28T04:19:05.835Z,3.50
2023-02-28T04:21:47.392Z,3.50
2023-02-28T04:24:17.571Z,3.50
2023-02-28T04:26:46.798Z,3.50
2023-02-28T04:29:18.593Z,3.50
2023-02-28T04:31:45.393Z,3.50
2023-02-28T04:34:12.015Z,3.50
2023-02-28T04:36:38.591Z,3.50
2023-02-28T04:39:05.410Z,3.50
2023-02-28T04:41:32.957Z,3.40
2023-02-28T04:43:59.951Z,3.40
2023-02-28T04:46:26.559Z,3.40
2023-02-28T04:48:54.540Z,3.40
2023-02-28T04:51:21.456Z,3.40
2023-02-28T04:53:49.264Z,3.30
2023-02-28T04:56:17.644Z,3.30
2023-02-28T04:58:45.108Z,3.30
2023-02-28T05:01:27.344Z,3.30
2023-02-28T05:03:57.622Z,3.20
2023-02-28T05:06:25.931Z,3.20
2023-02-28T05:08:53.230Z,3.20
2023-02-28T05:11:23.350Z,3.20
2023-02-28T05:13:50.922Z,3.20
2023-02-28T05:16:18.561Z,3.20
2023-02-28T05:18:45.633Z,3.20
2023-02-28T05:21:31.979Z,3.10
2023-02-28T05:24:04.432Z,3.10
2023-02-28T05:26:31.843Z,3.10
2023-02-28T05:28:58.461Z,3.00
2023-02-28T05:31:25.092Z,3.00
2023-02-28T05:33:52.329Z,2.90
2023-02-28T05:36:19.465Z,2.90
2023-02-28T05:38:50.323Z,2.90
2023-02-28T05:41:18.043Z,2.90
2023-02-28T05:43:44.644Z,2.80
2023-02-28T05:46:12.297Z,2.70
2023-02-28T05:48:40.553Z,2.70
2023-02-28T05:51:08.476Z,2.60
2023-02-28T05:53:35.649Z,2.60
2023-02-28T05:56:02.365Z,2.50
2023-02-28T05:58:32.064Z,2.50
2023-02-28T06:01:19.402Z,2.50
2023-02-28T06:03:46.024Z,2.40
2023-02-28T06:06:12.605Z,2.40
2023-02-28T06:08:39.168Z,2.40
2023-02-28T06:11:05.886Z,2.40
2023-02-28T06:13:32.428Z,2.40
2023-02-28T06:16:01.924Z,2.40
2023-02-28T06:18:28.464Z,2.40
2023-02-28T06:20:56.342Z,2.40
2023-02-28T06:23:23.532Z,2.50
2023-02-28T06:25:50.595Z,2.50
2023-02-28T06:28:17.428Z,2.60
2023-02-28T06:30:46.377Z,2.60
2023-02-28T06:33:13.188Z,2.60
2023-02-28T06:35:39.967Z,2.70
2023-02-28T06:38:06.638Z,2.70
2023-02-28T06:40:35.908Z,2.70
2023-02-28T06:43:02.909Z,2.80
2023-02-28T06:45:29.563Z,2.80
2023-02-28T06:47:56.279Z,2.80
2023-02-28T06:50:22.909Z,2.90
2023-02-28T06:52:49.475Z,2.90
2023-02-28T06:55:16.026Z,2.90
2023-02-28T06:57:42.693Z,3.00
2023-02-28T07:00:10.646Z,3.00
2023-02-28T07:02:38.435Z,3.00
2023-02-28T07:05:06.721Z,3.10
2023-02-28T07:07:33.649Z,3.00
2023-02-28T07:10:00.251Z,3.00
2023-02-28T07:12:26.808Z,3.10
2023-02-28T07:14:53.434Z,3.10
2023-02-28T07:17:20.034Z,3.10
2023-02-28T07:19:46.658Z,3.20
2023-02-28T07:22:15.572Z,3.20
2023-02-28T07:24:42.757Z,3.10
2023-02-28T07:27:09.410Z,3.20
2023-02-28T07:29:35.952Z,3.30
2023-02-28T07:32:02.592Z,3.60
2023-02-28T07:34:29.222Z,3.80
2023-02-28T07:36:56.267Z,4.00
2023-02-28T07:39:23.571Z,4.20
2023-02-28T07:41:50.120Z,4.70
2023-02-28T07:44:17.082Z,6.60
2023-02-28T07:46:43.710Z,9.40
2023-02-28T07:49:10.348Z,11.50
2023-02-28T07:51:37.198Z,13.90
2023-02-28T07:54:04.217Z,16.00
2023-02-28T07:56:31.163Z,17.80
2023-02-28T07:58:58.000Z,19.30
2023-02-28T08:01:24.880Z,20.20
2023-02-28T08:03:51.521Z,21.10
2023-02-28T08:06:21.361Z,22.10
2023-02-28T08:08:48.896Z,22.30
2023-02-28T08:11:16.942Z,21.70
2023-02-28T08:13:44.811Z,21.10
2023-02-28T08:16:12.889Z,21.10
2023-02-28T08:18:39.555Z,21.30
2023-02-28T08:21:12.760Z,21.80
2023-02-28T08:23:39.536Z,20.40
2023-02-28T08:26:06.320Z,20.40
2023-02-28T08:28:33.797Z,20.70
2023-02-28T08:31:00.756Z,21.40
2023-02-28T08:33:29.127Z,22.70
2023-02-28T08:35:56.908Z,24.10
2023-02-28T08:38:24.522Z,24.90
2023-02-28T08:40:57.578Z,25.80
2023-02-28T08:43:24.141Z,26.60
2023-02-28T08:45:53.267Z,27.30
2023-02-28T08:48:19.967Z,27.40
2023-02-28T08:51:06.607Z,27.40
2023-02-28T08:53:34.258Z,27.50
2023-02-28T08:56:03.914Z,27.40
2023-02-28T08:58:30.846Z,28.20
2023-02-28T09:00:58.236Z,28.50
2023-02-28T09:03:25.365Z,29.00
2023-02-28T09:06:00.977Z,28.90
2023-02-28T09:08:31.295Z,29.30
2023-02-28T09:10:59.476Z,29.50
2023-02-28T09:13:27.985Z,28.10
2023-02-28T09:15:55.399Z,27.40
2023-02-28T09:18:22.215Z,25.60
2023-02-28T09:20:48.803Z,26.20
2023-02-28T09:23:15.422Z,26.90
2023-02-28T09:25:55.489Z,27.60
2023-02-28T09:28:22.749Z,27.90
2023-02-28T09:30:52.791Z,28.10
2023-02-28T09:33:21.902Z,27.10
2023-02-28T09:35:49.287Z,26.70
2023-02-28T09:38:16.652Z,27.60
2023-02-28T09:40:59.624Z,27.10
2023-02-28T09:43:36.589Z,28.00
2023-02-28T09:46:08.010Z,29.10
2023-02-28T09:48:41.233Z,29.80
2023-02-28T09:51:34.186Z,29.40
2023-02-28T09:54:02.172Z,28.80
2023-02-28T09:56:32.764Z,29.10
2023-02-28T09:59:27.614Z,30.00
2023-02-28T10:02:05.061Z,31.10
2023-02-28T10:04:44.534Z,31.80
2023-02-28T10:07:22.000Z,30.80
2023-02-28T10:09:54.732Z,30.60
2023-02-28T10:12:21.520Z,30.90
2023-02-28T10:14:52.502Z,31.20
2023-02-28T10:17:24.783Z,31.70
2023-02-28T10:20:08.738Z,31.70
2023-02-28T10:22:40.680Z,31.20
2023-02-28T10:25:25.914Z,30.10
2023-02-28T10:28:02.345Z,27.30
2023-02-28T10:30:29.310Z,24.50
2023-02-28T10:32:56.201Z,22.20
2023-02-28T10:35:27.618Z,20.20
2023-02-28T10:37:59.682Z,19.20
2023-02-28T10:40:26.189Z,20.30
2023-02-28T10:42:59.937Z,22.10
2023-02-28T10:45:32.797Z,24.90
2023-02-28T10:48:02.435Z,27.30
2023-02-28T10:50:38.935Z,29.00
2023-02-28T10:53:11.239Z,29.40
2023-02-28T10:55:38.090Z,30.30
2023-02-28T10:58:23.689Z,31.10
2023-02-28T11:00:50.461Z,30.80
2023-02-28T11:03:30.099Z,30.60
2023-02-28T11:05:56.956Z,31.20
2023-02-28T11:08:23.722Z,31.60
2023-02-28T11:10:57.111Z,31.90
2023-02-28T11:13:35.823Z,31.80
2023-02-28T11:16:06.582Z,30.60
2023-02-28T11:18:54.746Z,29.80
2023-02-28T11:21:30.099Z,29.30
2023-02-28T11:24:29.405Z,29.30
2023-02-28T11:26:56.719Z,28.50
2023-02-28T11:29:25.114Z,28.10
2023-02-28T11:32:19.245Z,27.70
2023-02-28T11:34:47.842Z,25.70
2023-02-28T11:37:18.542Z,24.90
2023-02-28T11:39:47.041Z,25.60
2023-02-28T11:42:33.232Z,26.60
2023-02-28T11:45:13.300Z,27.30
2023-02-28T11:47:56.267Z,27.70
2023-02-28T11:50:51.026Z,25.80
2023-02-28T11:53:23.931Z,25.00
2023-02-28T11:56:00.390Z,24.90
2023-02-28T11:58:38.790Z,25.50
2023-02-28T12:01:17.252Z,26.60
2023-02-28T12:04:08.658Z,27.70
2023-02-28T12:06:47.301Z,28.30
2023-02-28T12:09:51.155Z,27.40
2023-02-28T12:12:39.277Z,27.40
2023-02-28T12:15:24.376Z,27.60
2023-02-28T12:18:06.104Z,27.50
2023-02-28T12:20:55.370Z,26.70
2023-02-28T12:23:27.108Z,26.80
2023-02-28T12:25:59.503Z,26.60
2023-02-28T12:28:49.981Z,25.20
2023-02-28T12:31:22.863Z,24.30
2023-02-28T12:33:54.170Z,24.00
2023-02-28T12:36:22.958Z,23.50
2023-02-28T12:38:59.489Z,23.90
2023-02-28T12:41:32.086Z,24.90
2023-02-28T12:44:04.464Z,25.60
2023-02-28T12:46:39.753Z,25.50
2023-02-28T12:49:17.781Z,25.10
2023-02-28T12:51:46.804Z,25.10
2023-02-28T12:54:40.832Z,25.00
2023-02-28T12:57:35.138Z,24.80
2023-02-28T13:00:13.043Z,23.30
2023-02-28T13:03:25.634Z,23.50
2023-02-28T13:06:09.935Z,23.40
2023-02-28T13:09:06.464Z,22.00
2023-02-28T13:11:54.960Z,21.60
2023-02-28T13:14:28.048Z,21.90
2023-02-28T13:17:03.378Z,22.50
2023-02-28T13:19:33.448Z,22.90
2023-02-28T13:22:01.614Z,22.50
2023-02-28T13:24:49.851Z,22.80
2023-02-28T13:27:16.399Z,23.30
2023-02-28T13:29:45.330Z,23.30
2023-02-28T13:32:11.973Z,23.20
2023-02-28T13:34:40.173Z,22.80
2023-02-28T13:37:18.922Z,22.80
2023-02-28T13:39:46.914Z,22.60
2023-02-28T13:42:31.901Z,21.80
2023-02-28T13:45:04.631Z,21.70
2023-02-28T13:47:41.362Z,21.50
2023-02-28T13:50:26.870Z,21.50
2023-02-28T13:53:12.343Z,22.00
2023-02-28T13:55:51.764Z,22.10
2023-02-28T13:58:36.422Z,22.40
2023-02-28T14:01:28.581Z,22.60
2023-02-28T14:04:33.692Z,22.50
2023-02-28T14:07:01.333Z,22.20
2023-02-28T14:09:41.603Z,21.80
2023-02-28T14:12:46.173Z,21.40
2023-02-28T14:15:34.042Z,20.50
2023-02-28T14:18:06.739Z,20.30
2023-02-28T14:20:34.831Z,20.40
2023-02-28T14:23:30.283Z,20.20
2023-02-28T14:26:34.280Z,19.60
2023-02-28T14:29:16.197Z,19.40
2023-02-28T14:32:07.275Z,18.90
2023-02-28T14:35:18.825Z,18.90
2023-02-28T14:37:46.056Z,19.10
2023-02-28T14:40:28.756Z,19.10
2023-02-28T14:43:01.556Z,19.20
2023-02-28T14:45:31.948Z,19.00
2023-02-28T14:48:00.184Z,18.40
2023-02-28T14:50:37.830Z,18.10
2023-02-28T14:53:07.596Z,17.50
2023-02-28T14:55:36.300Z,17.00
2023-02-28T14:58:07.485Z,17.00
2023-02-28T15:00:38.337Z,17.30
2023-02-28T15:03:21.888Z,17.30
2023-02-28T15:06:00.605Z,17.00
2023-02-28T15:08:29.983Z,16.80
2023-02-28T15:10:58.500Z,16.30
2023-02-28T15:13:37.769Z,16.00
2023-02-28T15:16:12.861Z,15.70
2023-02-28T15:18:39.522Z,15.50
2023-02-28T15:21:11.791Z,15.10
2023-02-28T15:23:40.115Z,14.70
2023-02-28T15:26:07.188Z,14.30
2023-02-28T15:28:34.104Z,13.60
2023-02-28T15:31:04.158Z,13.00
2023-02-28T15:33:33.265Z,12.50
2023-02-28T15:36:15.455Z,12.00
2023-02-28T15:38:43.963Z,11.50
2023-02-28T15:41:26.057Z,11.00
2023-02-28T15:44:18.458Z,10.90
2023-02-28T15:47:04.833Z,10.80
2023-02-28T15:49:49.595Z,10.70
2023-02-28T15:52:19.854Z,10.30
2023-02-28T15:54:47.672Z,9.90
2023-02-28T15:57:24.580Z,9.60
2023-02-28T15:59:57.227Z,9.30
2023-02-28T16:02:35.548Z,9.00
2023-02-28T16:05:11.210Z,8.70
2023-02-28T16:07:40.426Z,8.40
2023-02-28T16:10:08.961Z,8.20
2023-02-28T16:12:37.511Z,8.10
2023-02-28T16:15:21.950Z,8.00
2023-02-28T16:17:48.703Z,7.70
2023-02-28T16:20:20.813Z,7.50
2023-02-28T16:22:47.580Z,7.20
2023-02-28T16:25:20.173Z,7.00
2023-02-28T16:27:51.222Z,6.70
2023-02-28T16:30:24.945Z,6.50
2023-02-28T16:32:52.785Z,6.30
2023-02-28T16:35:20.329Z,6.20
2023-02-28T16:37:47.179Z,6.10
2023-02-28T16:40:21.155Z,6.00
2023-02-28T16:42:50.692Z,5.80
2023-02-28T16:45:20.701Z,5.70
2023-02-28T16:47:48.470Z,5.60
2023-02-28T16:50:24.444Z,5.50
2023-02-28T16:52:53.176Z,5.40
2023-02-28T16:55:20.098Z,5.30
2023-02-28T16:57:57.322Z,5.20
2023-02-28T17:00:25.736Z,5.10
2023-02-28T17:02:52.605Z,5.10
2023-02-28T17:05:19.835Z,5.00
2023-02-28T17:07:47.728Z,4.90
2023-02-28T17:10:18.398Z,4.70
2023-02-28T17:12:45.479Z,4.60
2023-02-28T17:15:13.837Z,4.50
2023-02-28T17:17:41.006Z,4.40
2023-02-28T17:20:12.205Z,4.20
2023-02-28T17:22:38.763Z,4.10
2023-02-28T17:25:06.284Z,3.90
2023-02-28T17:27:32.840Z,3.80
2023-02-28T17:29:59.472Z,3.60
2023-02-28T17:32:26.776Z,3.40
2023-02-28T17:34:53.350Z,3.30
2023-02-28T17:37:20.256Z,3.20
2023-02-28T17:39:46.840Z,3.10
2023-02-28T17:42:13.448Z,2.90
2023-02-28T17:44:40.123Z,2.80
2023-02-28T17:47:06.714Z,2.70
2023-02-28T17:49:34.093Z,2.60
2023-02-28T17:52:00.652Z,2.50
2023-02-28T17:54:27.321Z,2.40
2023-02-28T17:56:53.882Z,2.30
2023-02-28T17:59:20.491Z,2.20
2023-02-28T18:01:47.218Z,2.20
2023-02-28T18:04:13.908Z,2.10
2023-02-28T18:06:50.533Z,2.10
2023-02-28T18:09:22.408Z,2.10
2023-02-28T18:11:50.514Z,2.10
2023-02-28T18:14:18.903Z,2.10
2023-02-28T18:16:46.195Z,2.00
2023-02-28T18:19:17.489Z,2.00
2023-02-28T18:21:45.864Z,2.00
2023-02-28T18:24:13.397Z,1.90
2023-02-28T18:26:40.535Z,1.80
2023-02-28T18:29:07.839Z,1.80
2023-02-28T18:31:34.562Z,1.70
2023-02-28T18:34:01.370Z,1.70
2023-02-28T18:36:29.166Z,1.60
2023-02-28T18:38:56.175Z,1.60
2023-02-28T18:41:23.201Z,1.50
2023-02-28T18:43:52.170Z,1.40
2023-02-28T18:46:20.691Z,1.40
2023-02-28T18:48:47.671Z,1.40
2023-02-28T18:51:25.262Z,1.30
2023-02-28T18:53:52.303Z,1.30
2023-02-28T18:56:20.964Z,1.20
2023-02-28T18:58:47.583Z,1.10
2023-02-28T19:01:18.932Z,1.10
2023-02-28T19:03:45.840Z,1.00
2023-02-28T19:06:12.671Z,1.00
2023-02-28T19:08:39.645Z,0.90
2023-02-28T19:11:08.261Z,0.80
2023-02-28T19:13:34.899Z,0.80
2023-02-28T19:16:03.250Z,0.70
2023-02-28T19:18:30.085Z,0.70
2023-02-28T19:20:56.784Z,0.70
2023-02-28T19:23:23.370Z,0.60
2023-02-28T19:25:50.090Z,0.60
2023-02-28T19:28:16.695Z,0.60
2023-02-28T19:30:51.008Z,0.50
2023-02-28T19:33:17.562Z,0.50
2023-02-28T19:35:44.242Z,0.50
2023-02-28T19:38:10.870Z,0.40
2023-02-28T19:40:37.979Z,0.30
2023-02-28T19:43:05.427Z,0.20
2023-02-28T19:45:33.730Z,0.20
2023-02-28T19:48:00.374Z,0.10
2023-02-28T19:50:27.113Z,0.10
2023-02-28T19:52:53.766Z,0.00
2023-02-28T19:55:20.347Z,-0.10
2023-02-28T19:57:47.163Z,-0.10
2023-02-28T20:00:15.231Z,-0.10
2023-02-28T20:02:43.716Z,-0.20
2023-02-28T20:05:10.307Z,-0.20
2023-02-28T20:07:37.176Z,-0.20
2023-02-28T20:10:04.232Z,-0.30
2023-02-28T20:12:31.110Z,-0.30
2023-02-28T20:14:58.022Z,-0.30
2023-02-28T20:17:24.676Z,-0.30
2023-02-28T20:19:51.309Z,-0.40
2023-02-28T20:22:18.130Z,-0.40
2023-02-28T20:24:44.693Z,-0.40
2023-02-28T20:27:11.398Z,-0.40
2023-02-28T20:29:38.055Z,-0.40
2023-02-28T20:32:04.726Z,-0.40
2023-02-28T20:34:31.355Z,-0.40
2023-02-28T20:36:58.634Z,-0.40
2023-02-28T20:39:25.600Z,-0.40
2023-02-28T20:41:52.158Z,-0.40
2023-02-28T20:44:19.286Z,-0.30
2023-02-28T20:46:45.856Z,-0.30
2023-02-28T20:49:12.577Z,-0.30
2023-02-28T20:51:40.107Z,-0.40
2023-02-28T20:54:07.919Z,-0.40
2023-02-28T20:56:34.770Z,-0.40
2023-02-28T20:59:01.354Z,-0.40
2023-02-28T21:01:29.587Z,-0.50
2023-02-28T21:04:08.008Z,-0.50
2023-02-28T21:06:39.693Z,-0.50
2023-02-28T21:09:08.248Z,-0.60
2023-02-28T21:11:37.068Z,-0.60
2023-02-28T21:14:06.108Z,-0.70
2023-02-28T21:16:33.907Z,-0.70
2023-02-28T21:19:04.506Z,-0.70
2023-02-28T21:21:38.250Z,-0.70
2023-02-28T21:24:05.605Z,-0.70
2023-02-28T21:26:33.329Z,-0.70
2023-02-28T21:29:02.199Z,-0.70
2023-02-28T21:31:31.425Z,-0.60
2023-02-28T21:33:59.499Z,-0.70
2023-02-28T21:36:32.645Z,-0.70
2023-02-28T21:39:02.898Z,-0.70
2023-02-28T21:41:30.329Z,-0.70
2023-02-28T21:43:57.115Z,-0.70
2023-02-28T21:46:26.004Z,-0.70
2023-02-28T21:48:53.103Z,-0.70
2023-02-28T21:51:26.256Z,-0.70
2023-02-28T21:53:53.306Z,-0.70
2023-02-28T21:56:25.624Z,-0.80
2023-02-28T21:59:00.123Z,-0.80
2023-02-28T22:01:34.520Z,-0.80
2023-02-28T22:04:03.243Z,-0.80
2023-02-28T22:06:33.208Z,-0.80
2023-02-28T22:09:05.878Z,-0.70
2023-02-28T22:11:34.163Z,-0.80
2023-02-28T22:14:00.879Z,-0.80
2023-02-28T22:16:33.191Z,-0.80
2023-02-28T22:19:06.441Z,-0.80
2023-02-28T22:21:34.470Z,-0.80
2023-02-28T22:24:01.609Z,-0.90
2023-02-28T22:26:28.904Z,-0.90
2023-02-28T22:28:55.688Z,-1.00
2023-02-28T22:31:34.273Z,-1.00
2023-02-28T22:34:05.858Z,-1.00
2023-02-28T22:36:33.130Z,-1.00
2023-02-28T22:39:02.644Z,-0.90
2023-02-28T22:41:30.101Z,-0.90
2023-02-28T22:43:59.137Z,-1.00
2023-02-28T22:46:27.533Z,-1.00
2023-02-28T22:48:54.597Z,-1.10
2023-02-28T22:51:25.196Z,-1.10
2023-02-28T22:53:52.957Z,-1.20
2023-02-28T22:56:22.058Z,-1.30
2023-02-28T22:58:54.296Z,-1.40
2023-02-28T23:01:23.134Z,-1.50
2023-02-28T23:03:50.242Z,-1.50
2023-02-28T23:06:32.031Z,-1.40
2023-02-28T23:09:05.626Z,-1.40
2023-02-28T23:11:35.059Z,-1.40
2023-02-28T23:14:02.567Z,-1.50
2023-02-28T23:16:41.621Z,-1.50
2023-02-28T23:19:15.147Z,-1.50
2023-02-28T23:21:42.941Z,-1.50
2023-02-28T23:24:11.836Z,-1.50
2023-02-28T23:26:45.074Z,-1.50
2023-02-28T23:29:12.923Z,-1.50
2023-02-28T23:31:39.604Z,-1.60
2023-02-28T23:34:06.291Z,-1.50
2023-02-28T23:36:33.507Z,-1.60
2023-02-28T23:39:00.531Z,-1.60
2023-02-28T23:41:27.156Z,-1.70
2023-02-28T23:43:54.496Z,-1.70
2023-02-28T23:46:21.817Z,-1.80
2023-02-28T23:48:48.411Z,-1.80
2023-02-28T23:51:20.739Z,-1.80
2023-02-28T23:53:49.564Z,-1.80
2023-02-28T23:56:19.521Z,-1.80
2023-02-28T23:58:46.772Z,-1.80
